createdAt,value
2023-05-28T00:01:56.095Z,102230.97
2023-05-28T00:04:23.301Z,102231.03
2023-05-28T00:06:52.113Z,102233.81
2023-05-28T00:09:18.691Z,102221.59
2023-05-28T00:11:45.856Z,102223.53
2023-05-28T00:14:12.559Z,102227.19
2023-05-28T00:16:39.085Z,102216.91
2023-05-28T00:19:06.770Z,102223.31
2023-05-28T00:21:35.223Z,102227.03
2023-05-28T00:24:01.935Z,102225.31
2023-05-28T00:26:31.112Z,102221.94
2023-05-28T00:29:00.318Z,102226.50
2023-05-28T00:31:26.953Z,102230.13
2023-05-28T00:33:55.246Z,102232.84
2023-05-28T00:36:22.190Z,102220.78
2023-05-28T00:38:48.729Z,102217.53
2023-05-28T00:41:23.629Z,102216.75
2023-05-28T00:43:51.120Z,102215.31
2023-05-28T00:46:20.248Z,102207.59
2023-05-28T00:48:47.463Z,102201.56
2023-05-28T00:51:15.298Z,102204.28
2023-05-28T00:53:45.365Z,102202.66
2023-05-28T00:56:13.620Z,102190.59
2023-05-28T00:58:44.715Z,102193.38
2023-05-28T01:01:11.656Z,102187.34
2023-05-28T01:03:43.474Z,102191.06
2023-05-28T01:06:14.989Z,102186.81
2023-05-28T01:08:43.012Z,102195.63
2023-05-28T01:11:15.061Z,102188.59
2023-05-28T01:13:44.750Z,102185.31
2023-05-28T01:16:12.562Z,102186.56
2023-05-28T01:18:45.808Z,102184.88
2023-05-28T01:21:12.985Z,102187.59
2023-05-28T01:23:48.632Z,102178.09
2023-05-28T01:26:21.640Z,102186.19
2023-05-28T01:28:50.880Z,102181.81
2023-05-28T01:31:18.298Z,102187.19
2023-05-28T01:33:46.797Z,102182.09
2023-05-28T01:36:32.059Z,102182.94
2023-05-28T01:39:03.495Z,102183.94
2023-05-28T01:41:32.307Z,102184.09
2023-05-28T01:44:00.924Z,102184.38
2023-05-28T01:46:28.106Z,102179.28
2023-05-28T01:48:56.711Z,102185.69
2023-05-28T01:51:24.572Z,102195.50
2023-05-28T01:53:51.993Z,102187.69
2023-05-28T01:56:18.998Z,102189.59
2023-05-28T01:58:49.852Z,102190.59
2023-05-28T02:01:26.180Z,102193.31
2023-05-28T02:03:54.941Z,102190.69
2023-05-28T02:06:23.006Z,102193.44
2023-05-28T02:08:49.925Z,102185.56
2023-05-28T02:11:16.754Z,102189.28
2023-05-28T02:13:43.411Z,102188.44
2023-05-28T02:16:13.094Z,102187.59
2023-05-28T02:18:40.801Z,102184.97
2023-05-28T02:21:07.497Z,102182.47
2023-05-28T02:23:34.096Z,102187.72
2023-05-28T02:26:02.224Z,102180.75
2023-05-28T02:28:29.833Z,102183.38
2023-05-28T02:30:56.685Z,102177.38
2023-05-28T02:33:23.283Z,102181.78
2023-05-28T02:35:49.836Z,102182.78
2023-05-28T02:38:18.998Z,102176.69
2023-05-28T02:40:47.515Z,102182.78
2023-05-28T02:43:14.053Z,102179.22
2023-05-28T02:45:40.919Z,102185.31
2023-05-28T02:48:08.049Z,102183.63
2023-05-28T02:50:34.695Z,102191.69
2023-05-28T02:53:01.870Z,102191.81
2023-05-28T02:55:28.490Z,102192.72
2023-05-28T02:57:56.067Z,102192.09
2023-05-28T03:00:23.379Z,102196.56
2023-05-28T03:02:50.261Z,102194.03
2023-05-28T03:05:16.899Z,102200.34
2023-05-28T03:07:43.483Z,102195.09
2023-05-28T03:10:11.558Z,102192.47
2023-05-28T03:12:38.272Z,102185.59
2023-05-28T03:15:05.236Z,102193.50
2023-05-28T03:17:32.896Z,102189.28
2023-05-28T03:19:59.913Z,102188.50
2023-05-28T03:22:27.029Z,102186.00
2023-05-28T03:24:54.125Z,102193.88
2023-05-28T03:27:21.085Z,102199.19
2023-05-28T03:29:47.672Z,102203.66
2023-05-28T03:32:17.251Z,102203.72
2023-05-28T03:34:44.099Z,102206.41
2023-05-28T03:37:10.694Z,102202.00
2023-05-28T03:39:37.526Z,102196.75
2023-05-28T03:42:04.560Z,102196.75
2023-05-28T03:44:31.117Z,102202.00
2023-05-28T03:46:58.417Z,102196.75
2023-05-28T03:49:25.276Z,102194.16
2023-05-28T03:51:51.745Z,102203.72
2023-05-28T03:54:18.523Z,102210.53
2023-05-28T03:56:45.378Z,102209.50
2023-05-28T03:59:12.130Z,102211.94
2023-05-28T04:01:38.958Z,102211.81
2023-05-28T04:04:07.162Z,102215.19
2023-05-28T04:06:34.239Z,102209.94
2023-05-28T04:09:01.945Z,102207.31
2023-05-28T04:11:31.082Z,102210.53
2023-05-28T04:13:58.455Z,102203.53
2023-05-28T04:16:25.104Z,102199.03
2023-05-28T04:18:52.245Z,102191.25
2023-05-28T04:21:19.711Z,102192.00
2023-05-28T04:23:49.786Z,102201.41
2023-05-28T04:26:17.511Z,102208.38
2023-05-28T04:28:44.770Z,102204.94
2023-05-28T04:31:11.691Z,102210.41
2023-05-28T04:33:38.525Z,102218.50
2023-05-28T04:36:05.961Z,102213.50
2023-05-28T04:38:34.557Z,102216.03
2023-05-28T04:41:01.383Z,102218.50
2023-05-28T04:43:30.875Z,102222.88
2023-05-28T04:46:00.402Z,102217.75
2023-05-28T04:48:28.225Z,102220.25
2023-05-28T04:50:56.861Z,102232.63
2023-05-28T04:53:23.495Z,102222.75
2023-05-28T04:55:50.301Z,102220.06
2023-05-28T04:58:18.284Z,102208.59
2023-05-28T05:00:46.149Z,102217.06
2023-05-28T05:03:13.543Z,102217.41
2023-05-28T05:05:44.039Z,102224.53
2023-05-28T05:08:14.254Z,102219.19
2023-05-28T05:10:41.403Z,102230.22
2023-05-28T05:13:08.160Z,102223.75
2023-05-28T05:15:35.169Z,102222.44
2023-05-28T05:18:01.997Z,102225.38
2023-05-28T05:20:29.058Z,102224.38
2023-05-28T05:22:58.133Z,102213.66
2023-05-28T05:25:24.999Z,102214.88
2023-05-28T05:27:52.171Z,102214.88
2023-05-28T05:30:24.862Z,102225.66
2023-05-28T05:32:51.562Z,102226.03
2023-05-28T05:35:20.879Z,102220.53
2023-05-28T05:37:50.335Z,102215.81
2023-05-28T05:40:16.906Z,102216.44
2023-05-28T05:42:45.577Z,102213.28
2023-05-28T05:45:12.297Z,102213.03
2023-05-28T05:47:39.337Z,102224.91
2023-05-28T05:50:06.888Z,102221.63
2023-05-28T05:52:34.238Z,102226.19
2023-05-28T05:55:05.177Z,102224.63
2023-05-28T05:57:33.427Z,102223.66
2023-05-28T06:00:00.299Z,102218.63
2023-05-28T06:02:29.113Z,102221.88
2023-05-28T06:04:56.688Z,102212.28
2023-05-28T06:07:23.768Z,102216.69
2023-05-28T06:09:53.336Z,102215.28
2023-05-28T06:12:21.705Z,102217.56
2023-05-28T06:14:48.634Z,102223.16
2023-05-28T06:17:16.199Z,102231.25
2023-05-28T06:19:43.174Z,102223.13
2023-05-28T06:22:13.385Z,102228.75
2023-05-28T06:24:41.245Z,102232.00
2023-05-28T06:27:11.779Z,102234.56
2023-05-28T06:29:38.380Z,102223.44
2023-05-28T06:32:05.290Z,102220.91
2023-05-28T06:34:35.989Z,102222.94
2023-05-28T06:37:15.300Z,102216.78
2023-05-28T06:39:54.549Z,102212.47
2023-05-28T06:42:33.751Z,102220.25
2023-05-28T06:45:04.006Z,102219.44
2023-05-28T06:47:30.950Z,102216.56
2023-05-28T06:50:29.935Z,102220.06
2023-05-28T06:52:57.997Z,102220.75
2023-05-28T06:55:33.664Z,102218.94
2023-05-28T06:58:08.815Z,102221.59
2023-05-28T07:01:13.104Z,102218.72
2023-05-28T07:06:57.485Z,102222.34
2023-05-28T07:08:37.715Z,102216.78
2023-05-28T07:09:30.850Z,102228.25
2023-05-28T07:11:57.717Z,102235.25
2023-05-28T07:14:34.092Z,102235.31
2023-05-28T07:17:01.605Z,102232.66
2023-05-28T07:19:46.654Z,102237.44
2023-05-28T07:22:14.054Z,102246.84
2023-05-28T07:24:59.654Z,102243.16
2023-05-28T07:27:26.770Z,102247.69
2023-05-28T07:30:31.058Z,102250.78
2023-05-28T07:33:09.699Z,102241.91
2023-05-28T07:35:46.190Z,102249.03
2023-05-28T07:41:14.314Z,102256.63
2023-05-28T07:43:48.394Z,102247.72
2023-05-28T07:46:20.758Z,102244.25
2023-05-28T07:48:47.632Z,102242.53
2023-05-28T07:51:15.166Z,102249.44
2023-05-28T07:53:41.722Z,102243.09
2023-05-28T07:56:34.235Z,102246.34
2023-05-28T08:00:03.968Z,102256.69
2023-05-28T08:02:46.035Z,102249.16
2023-05-28T08:05:16.595Z,102253.44
2023-05-28T08:07:48.124Z,102252.78
2023-05-28T08:10:15.003Z,102249.31
2023-05-28T08:12:47.735Z,102243.78
2023-05-28T08:15:16.590Z,102251.06
2023-05-28T08:17:43.945Z,102245.81
2023-05-28T08:20:12.827Z,102254.03
2023-05-28T08:22:40.157Z,102248.50
2023-05-28T08:25:07.316Z,102252.22
2023-05-28T08:27:42.234Z,102256.22
2023-05-28T08:30:10.264Z,102240.06
2023-05-28T08:32:36.930Z,102238.63
2023-05-28T08:35:08.629Z,102241.03
2023-05-28T08:37:38.161Z,102243.88
2023-05-28T08:40:10.233Z,102234.16
2023-05-28T08:42:42.664Z,102236.38
2023-05-28T08:45:09.568Z,102236.03
2023-05-28T08:47:38.640Z,102239.03
2023-05-28T08:50:07.711Z,102238.28
2023-05-28T08:52:35.461Z,102242.50
2023-05-28T08:55:02.605Z,102242.50
2023-05-28T08:57:30.947Z,102242.34
2023-05-28T08:59:59.570Z,102239.09
2023-05-28T09:02:26.958Z,102244.44
2023-05-28T09:05:01.995Z,102234.31
2023-05-28T09:07:28.696Z,102228.75
2023-05-28T09:09:57.853Z,102229.69
2023-05-28T09:12:25.623Z,102234.16
2023-05-28T09:14:54.684Z,102236.94
2023-05-28T09:17:38.689Z,102229.94
2023-05-28T09:20:15.513Z,102233.09
2023-05-28T09:22:42.641Z,102236.91
2023-05-28T09:25:09.763Z,102238.13
2023-05-28T09:27:37.860Z,102239.69
2023-05-28T09:30:14.545Z,102238.41
2023-05-28T09:32:44.165Z,102231.38
2023-05-28T09:35:11.971Z,102228.84
2023-05-28T09:37:42.261Z,102227.41
2023-05-28T09:40:12.891Z,102234.06
2023-05-28T09:42:45.288Z,102230.44
2023-05-28T09:45:12.788Z,102219.94
2023-05-28T09:47:44.816Z,102224.41
2023-05-28T09:50:12.515Z,102219.34
2023-05-28T09:52:41.406Z,102215.56
2023-05-28T09:55:11.354Z,102219.94
2023-05-28T09:57:46.283Z,102209.09
2023-05-28T10:00:24.640Z,102209.41
2023-05-28T10:03:16.155Z,102208.47
2023-05-28T10:05:52.166Z,102215.91
2023-05-28T10:08:23.515Z,102211.53
2023-05-28T10:10:55.449Z,102203.97
2023-05-28T10:13:26.594Z,102215.00
2023-05-28T10:15:54.671Z,102212.06
2023-05-28T10:18:26.396Z,102213.56
2023-05-28T10:20:56.847Z,102203.31
2023-05-28T10:23:25.375Z,102209.72
2023-05-28T10:25:58.131Z,102204.00
2023-05-28T10:28:24.896Z,102204.91
2023-05-28T10:31:16.390Z,102204.84
2023-05-28T10:33:44.949Z,102199.56
2023-05-28T10:36:15.990Z,102194.88
2023-05-28T10:39:01.692Z,102201.38
2023-05-28T10:41:33.436Z,102195.53
2023-05-28T10:44:07.302Z,102198.09
2023-05-28T10:46:42.570Z,102200.69
2023-05-28T10:49:17.620Z,102195.06
2023-05-28T10:52:04.590Z,102197.94
2023-05-28T10:54:31.501Z,102204.16
2023-05-28T10:57:19.371Z,102206.72
2023-05-28T11:00:17.085Z,102213.47
2023-05-28T11:03:44.809Z,102203.41
2023-05-28T11:06:14.301Z,102193.97
2023-05-28T11:08:55.758Z,102197.19
2023-05-28T11:11:23.717Z,102195.00
2023-05-28T11:13:50.377Z,102201.41
2023-05-28T11:16:24.212Z,102191.56
2023-05-28T11:22:09.533Z,102198.06
2023-05-28T11:30:57.408Z,102199.63
2023-05-28T11:33:39.118Z,102197.78
2023-05-28T11:36:09.654Z,102198.50
2023-05-28T11:38:37.009Z,102201.72
2023-05-28T11:41:05.094Z,102193.84
2023-05-28T11:43:34.135Z,102196.94
2023-05-28T11:46:07.796Z,102203.72
2023-05-28T11:48:39.830Z,102199.63
2023-05-28T11:51:06.646Z,102202.47
2023-05-28T11:53:47.404Z,102201.94
2023-05-28T11:56:15.098Z,102204.81
2023-05-28T11:58:51.074Z,102196.28
2023-05-28T12:01:20.748Z,102205.66
2023-05-28T12:03:47.695Z,102200.19
2023-05-28T12:06:23.109Z,102200.19
2023-05-28T12:09:05.682Z,102199.22
2023-05-28T12:11:49.775Z,102191.94
2023-05-28T12:14:22.488Z,102197.00
2023-05-28T12:16:53.032Z,102203.28
2023-05-28T12:19:19.665Z,102195.56
2023-05-28T12:21:49.054Z,102188.97
2023-05-28T12:24:16.647Z,102193.31
2023-05-28T12:26:43.763Z,102187.69
2023-05-28T12:29:11.080Z,102193.63
2023-05-28T12:31:37.975Z,102188.53
2023-05-28T12:34:04.625Z,102187.97
2023-05-28T12:36:41.657Z,102174.00
2023-05-28T12:39:08.602Z,102178.34
2023-05-28T12:41:37.838Z,102174.56
2023-05-28T12:44:10.565Z,102172.81
2023-05-28T12:46:37.528Z,102179.69
2023-05-28T12:49:04.476Z,102176.16
2023-05-28T12:51:37.484Z,102170.84
2023-05-28T12:54:04.262Z,102174.75
2023-05-28T12:56:30.967Z,102170.00
2023-05-28T12:58:57.795Z,102165.00
2023-05-28T13:01:27.190Z,102161.63
2023-05-28T13:03:54.199Z,102161.44
2023-05-28T13:06:21.089Z,102164.56
2023-05-28T13:08:47.944Z,102172.53
2023-05-28T13:11:17.768Z,102168.06
2023-05-28T13:13:46.919Z,102168.78
2023-05-28T13:16:19.045Z,102161.31
2023-05-28T13:18:47.182Z,102161.31
2023-05-28T13:21:17.216Z,102158.25
2023-05-28T13:23:43.706Z,102163.16
2023-05-28T13:26:10.748Z,102156.16
2023-05-28T13:28:37.539Z,102154.47
2023-05-28T13:31:06.851Z,102161.03
2023-05-28T13:33:33.669Z,102156.84
2023-05-28T13:36:00.838Z,102158.22
2023-05-28T13:38:28.040Z,102153.19
2023-05-28T13:40:56.839Z,102159.06
2023-05-28T13:43:23.850Z,102161.47
2023-05-28T13:45:51.597Z,102163.00
2023-05-28T13:48:22.493Z,102154.31
2023-05-28T13:50:50.052Z,102156.00
2023-05-28T13:53:18.160Z,102150.25
2023-05-28T13:55:45.225Z,102151.78
2023-05-28T13:58:12.172Z,102147.28
2023-05-28T14:00:39.720Z,102155.56
2023-05-28T14:03:07.191Z,102141.44
2023-05-28T14:05:36.474Z,102149.09
2023-05-28T14:08:03.966Z,102147.72
2023-05-28T14:10:34.844Z,102143.50
2023-05-28T14:13:01.724Z,102150.06
2023-05-28T14:15:28.851Z,102148.81
2023-05-28T14:17:55.629Z,102156.53
2023-05-28T14:20:24.636Z,102151.03
2023-05-28T14:22:56.849Z,102146.97
2023-05-28T14:25:24.756Z,102150.34
2023-05-28T14:28:00.099Z,102147.69
2023-05-28T14:30:47.891Z,102147.00
2023-05-28T14:33:14.862Z,102153.19
2023-05-28T14:35:42.764Z,102152.66
2023-05-28T14:38:09.387Z,102164.16
2023-05-28T14:40:36.291Z,102154.59
2023-05-28T14:43:02.859Z,102150.66
2023-05-28T14:45:29.770Z,102155.13
2023-05-28T14:48:05.708Z,102151.22
2023-05-28T14:50:32.382Z,102147.56
2023-05-28T14:52:59.601Z,102148.97
2023-05-28T14:55:29.108Z,102154.63
2023-05-28T14:57:58.622Z,102152.94
2023-05-28T15:00:25.816Z,102150.13
2023-05-28T15:02:52.714Z,102145.06
2023-05-28T15:05:21.111Z,102143.22
2023-05-28T15:07:49.290Z,102132.97
2023-05-28T15:10:16.854Z,102146.97
2023-05-28T15:12:43.800Z,102141.81
2023-05-28T15:15:11.294Z,102145.59
2023-05-28T15:17:38.200Z,102144.75
2023-05-28T15:20:05.976Z,102148.13
2023-05-28T15:22:32.907Z,102143.19
2023-05-28T15:25:00.015Z,102137.03
2023-05-28T15:27:26.694Z,102134.09
2023-05-28T15:29:53.488Z,102137.88
2023-05-28T15:32:20.840Z,102136.31
2023-05-28T15:34:47.809Z,102139.94
2023-05-28T15:37:14.891Z,102151.03
2023-05-28T15:39:45.298Z,102139.28
2023-05-28T15:42:11.935Z,102134.09
2023-05-28T15:44:39.226Z,102129.91
2023-05-28T15:47:07.499Z,102131.00
2023-05-28T15:49:36.897Z,102142.28
2023-05-28T15:52:05.647Z,102134.00
2023-05-28T15:54:32.373Z,102129.22
2023-05-28T15:57:01.596Z,102120.66
2023-05-28T15:59:29.591Z,102132.25
2023-05-28T16:01:59.385Z,102123.16
2023-05-28T16:04:29.779Z,102117.53
2023-05-28T16:06:56.656Z,102114.47
2023-05-28T16:09:27.066Z,102117.25
2023-05-28T16:11:56.372Z,102128.47
2023-05-28T16:14:24.149Z,102136.06
2023-05-28T16:16:54.512Z,102124.00
2023-05-28T16:19:22.195Z,102118.69
2023-05-28T16:21:49.232Z,102132.56
2023-05-28T16:24:18.364Z,102127.50
2023-05-28T16:26:49.811Z,102131.69
2023-05-28T16:29:21.319Z,102129.53
2023-05-28T16:31:48.834Z,102125.06
2023-05-28T16:34:16.501Z,102135.97
2023-05-28T16:36:43.604Z,102135.53
2023-05-28T16:39:10.913Z,102133.78
2023-05-28T16:41:37.620Z,102137.50
2023-05-28T16:44:04.493Z,102147.88
2023-05-28T16:46:31.349Z,102133.44
2023-05-28T16:49:01.809Z,102145.34
2023-05-28T16:51:38.962Z,102137.69
2023-05-28T16:55:21.877Z,102147.16
2023-05-28T16:58:00.510Z,102157.16
2023-05-28T17:01:06.010Z,102157.94
2023-05-28T17:04:41.384Z,102158.19
2023-05-28T17:07:11.101Z,102157.63
2023-05-28T17:09:47.427Z,102154.13
2023-05-28T17:12:17.572Z,102151.25
2023-05-28T17:14:44.515Z,102166.28
2023-05-28T17:17:20.158Z,102168.00
2023-05-28T17:19:49.640Z,102170.72
2023-05-28T17:22:16.599Z,102163.69
2023-05-28T17:24:43.328Z,102177.50
2023-05-28T17:27:16.141Z,102177.03
2023-05-28T17:29:52.674Z,102177.41
2023-05-28T17:32:19.617Z,102176.84
2023-05-28T17:37:32.418Z,102183.47
2023-05-28T17:39:59.315Z,102194.22
2023-05-28T17:42:52.874Z,102203.03
2023-05-28T17:45:21.114Z,102201.25
2023-05-28T17:47:48.038Z,102201.59
2023-05-28T17:50:17.142Z,102191.34
2023-05-28T17:52:47.863Z,102210.16
2023-05-28T17:55:22.899Z,102208.72
2023-05-28T17:57:54.248Z,102211.00
2023-05-28T18:00:22.763Z,102219.91
2023-05-28T18:03:00.122Z,102223.41
2023-05-28T18:05:28.933Z,102224.94
2023-05-28T18:07:57.708Z,102217.47
2023-05-28T18:10:28.783Z,102220.91
2023-05-28T18:12:56.637Z,102228.97
2023-05-28T18:15:31.877Z,102243.53
2023-05-28T18:17:59.332Z,102238.22
2023-05-28T18:20:27.022Z,102244.75
2023-05-28T18:22:53.784Z,102237.13
2023-05-28T18:25:22.661Z,102243.63
2023-05-28T18:27:51.276Z,102246.72
2023-05-28T18:30:21.547Z,102250.91
2023-05-28T18:32:49.127Z,102250.72
2023-05-28T18:35:16.316Z,102253.38
2023-05-28T18:37:43.062Z,102262.59
2023-05-28T18:40:12.432Z,102262.94
2023-05-28T18:42:39.678Z,102272.16
2023-05-28T18:45:08.605Z,102273.56
2023-05-28T18:47:37.000Z,102267.75
2023-05-28T18:50:08.476Z,102273.56
2023-05-28T18:52:41.476Z,102278.00
2023-05-28T18:55:08.996Z,102276.75
2023-05-28T18:57:36.374Z,102285.75
2023-05-28T19:00:08.924Z,102283.13
2023-05-28T19:02:38.021Z,102287.56
2023-05-28T19:05:07.807Z,102299.41
2023-05-28T19:07:36.146Z,102293.88
2023-05-28T19:10:06.856Z,102300.13
2023-05-28T19:12:33.586Z,102305.06
2023-05-28T19:15:04.486Z,102302.94
2023-05-28T19:17:32.010Z,102317.56
2023-05-28T19:20:00.441Z,102314.72
2023-05-28T19:22:30.674Z,102327.38
2023-05-28T19:25:09.020Z,102326.94
2023-05-28T19:27:40.837Z,102328.47
2023-05-28T19:30:14.428Z,102335.84
2023-05-28T19:32:44.344Z,102335.19
2023-05-28T19:35:19.682Z,102348.81
2023-05-28T19:37:50.198Z,102350.03
2023-05-28T19:40:21.633Z,102345.31
2023-05-28T19:42:59.092Z,102339.59
2023-05-28T19:45:28.824Z,102349.88
2023-05-28T19:47:59.257Z,102343.38
2023-05-28T19:50:35.364Z,102342.63
2023-05-28T19:53:02.113Z,102351.88
2023-05-28T19:55:34.212Z,102351.38
2023-05-28T19:58:01.343Z,102357.69
2023-05-28T20:00:29.430Z,102364.19
2023-05-28T20:02:59.137Z,102367.25
2023-05-28T20:05:28.084Z,102366.72
2023-05-28T20:08:04.596Z,102379.41
2023-05-28T20:10:34.341Z,102375.16
2023-05-28T20:13:04.874Z,102376.72
2023-05-28T20:15:34.860Z,102375.31
2023-05-28T20:18:10.236Z,102388.09
2023-05-28T20:20:42.926Z,102386.00
2023-05-28T20:23:09.597Z,102381.31
2023-05-28T20:25:38.821Z,102380.75
2023-05-28T20:28:06.060Z,102383.66
2023-05-28T20:30:32.660Z,102393.19
2023-05-28T20:32:59.679Z,102377.63
2023-05-28T20:35:29.958Z,102383.34
2023-05-28T20:38:04.866Z,102390.72
2023-05-28T20:40:33.557Z,102390.03
2023-05-28T20:43:01.743Z,102392.66
2023-05-28T20:45:28.339Z,102394.50
2023-05-28T20:48:01.041Z,102401.91
2023-05-28T20:50:30.904Z,102401.50
2023-05-28T20:53:01.191Z,102403.34
2023-05-28T20:55:29.893Z,102403.50
2023-05-28T20:57:56.586Z,102403.09
2023-05-28T21:00:29.103Z,102398.91
2023-05-28T21:03:00.259Z,102406.28
2023-05-28T21:05:27.449Z,102405.00
2023-05-28T21:07:54.678Z,102410.25
2023-05-28T21:10:21.616Z,102407.03
2023-05-28T21:12:51.570Z,102415.00
2023-05-28T21:15:19.063Z,102415.47
2023-05-28T21:17:50.824Z,102409.66
2023-05-28T21:20:19.364Z,102416.88
2023-05-28T21:22:50.561Z,102412.66
2023-05-28T21:25:28.785Z,102414.56
2023-05-28T21:27:58.703Z,102415.66
2023-05-28T21:30:30.024Z,102409.78
2023-05-28T21:32:57.183Z,102423.00
2023-05-28T21:35:26.865Z,102420.63
2023-05-28T21:37:55.337Z,102420.94
2023-05-28T21:40:23.602Z,102407.47
2023-05-28T21:43:02.855Z,102415.41
2023-05-28T21:45:37.817Z,102419.13
2023-05-28T21:48:07.518Z,102420.13
2023-05-28T21:50:36.031Z,102423.81
2023-05-28T21:53:05.001Z,102413.75
2023-05-28T21:55:34.589Z,102420.94
2023-05-28T21:58:04.158Z,102423.16
2023-05-28T22:00:32.242Z,102427.56
2023-05-28T22:03:02.896Z,102428.72
2023-05-28T22:05:32.577Z,102422.03
2023-05-28T22:08:06.310Z,102423.22
2023-05-28T22:10:40.532Z,102425.97
2023-05-28T22:13:07.270Z,102440.09
2023-05-28T22:15:39.930Z,102434.28
2023-05-28T22:18:07.017Z,102436.13
2023-05-28T22:20:42.767Z,102433.84
2023-05-28T22:23:11.658Z,102437.66
2023-05-28T22:25:42.277Z,102442.38
2023-05-28T22:28:08.956Z,102441.75
2023-05-28T22:30:40.942Z,102442.09
2023-05-28T22:33:12.215Z,102444.72
2023-05-28T22:35:40.613Z,102455.34
2023-05-28T22:38:21.967Z,102450.22
2023-05-28T22:40:55.508Z,102453.16
2023-05-28T22:43:22.084Z,102449.03
2023-05-28T22:45:51.878Z,102461.34
2023-05-28T22:48:19.055Z,102447.47
2023-05-28T22:50:45.835Z,102462.28
2023-05-28T22:53:12.931Z,102457.09
2023-05-28T22:55:41.904Z,102461.78
2023-05-28T22:58:09.278Z,102468.97
2023-05-28T23:00:36.384Z,102465.78
2023-05-28T23:03:09.151Z,102463.28
2023-05-28T23:05:36.034Z,102478.38
2023-05-28T23:08:02.732Z,102471.56
2023-05-28T23:10:31.875Z,102478.66
2023-05-28T23:12:59.946Z,102480.50
2023-05-28T23:15:28.026Z,102480.63
2023-05-28T23:17:55.320Z,102478.13
2023-05-28T23:20:21.964Z,102479.97
2023-05-28T23:22:48.928Z,102475.88
2023-05-28T23:25:16.402Z,102481.09
2023-05-28T23:27:42.894Z,102478.59
2023-05-28T23:30:10.972Z,102484.94
2023-05-28T23:32:37.961Z,102485.97
2023-05-28T23:35:05.822Z,102488.59
2023-05-28T23:37:33.421Z,102493.13
2023-05-28T23:40:00.556Z,102485.41
2023-05-28T23:42:29.774Z,102496.94
2023-05-28T23:44:57.408Z,102498.84
2023-05-28T23:47:24.183Z,102504.41
2023-05-28T23:49:51.675Z,102502.81
2023-05-28T23:52:18.537Z,102509.06
2023-05-28T23:54:48.796Z,102502.13
2023-05-28T23:57:16.356Z,102510.00
2023-05-28T23:59:43.008Z,102510.13
